createdAt,value
2023-01-11T00:00:03.792Z,984.52
2023-01-11T00:01:03.802Z,984.53
2023-01-11T00:02:03.815Z,984.54
2023-01-11T00:03:03.780Z,984.55
2023-01-11T00:04:03.741Z,984.56
2023-01-11T00:05:03.775Z,984.57
2023-01-11T00:06:03.729Z,984.55
2023-01-11T00:07:03.744Z,984.55
2023-01-11T00:08:03.694Z,984.56
2023-01-11T00:09:03.699Z,984.57
2023-01-11T00:10:03.682Z,984.58
2023-01-11T00:11:03.677Z,984.60
2023-01-11T00:12:03.646Z,984.61
2023-01-11T00:13:03.699Z,984.61
2023-01-11T00:14:03.644Z,984.62
2023-01-11T00:15:03.635Z,984.63
2023-01-11T00:16:03.662Z,984.64
2023-01-11T00:17:03.621Z,984.63
2023-01-11T00:18:03.604Z,984.66
2023-01-11T00:19:03.591Z,984.64
2023-01-11T00:20:03.602Z,984.62
2023-01-11T00:21:03.595Z,984.62
2023-01-11T00:22:03.560Z,984.62
2023-01-11T00:23:03.558Z,984.61
2023-01-11T00:24:03.525Z,984.60
2023-01-11T00:25:03.550Z,984.61
2023-01-11T00:26:03.524Z,984.56
2023-01-11T00:27:03.507Z,984.51
2023-01-11T00:28:03.501Z,984.50
2023-01-11T00:29:03.502Z,984.49
2023-01-11T00:30:03.460Z,984.54
2023-01-11T00:31:03.528Z,984.53
2023-01-11T00:32:03.447Z,984.52
2023-01-11T00:33:03.458Z,984.51
2023-01-11T00:34:03.425Z,984.48
2023-01-11T00:35:03.508Z,984.46
2023-01-11T00:36:03.397Z,984.44
2023-01-11T00:37:03.417Z,984.43
2023-01-11T00:38:03.381Z,984.41
2023-01-11T00:39:03.399Z,984.40
2023-01-11T00:40:03.355Z,984.39
2023-01-11T00:41:03.373Z,984.38
2023-01-11T00:42:03.333Z,984.36
2023-01-11T00:43:03.360Z,984.34
2023-01-11T00:44:03.313Z,984.33
2023-01-11T00:45:03.335Z,984.32
2023-01-11T00:46:03.339Z,984.32
2023-01-11T00:47:03.299Z,984.28
2023-01-11T00:48:03.271Z,984.27
2023-01-11T00:49:03.299Z,984.29
2023-01-11T00:50:03.273Z,984.26
2023-01-11T00:51:03.251Z,984.28
2023-01-11T00:52:03.225Z,984.26
2023-01-11T00:53:03.239Z,984.26
2023-01-11T00:54:03.207Z,984.22
2023-01-11T00:55:03.226Z,984.23
2023-01-11T00:56:03.200Z,984.17
2023-01-11T00:57:03.223Z,984.15
2023-01-11T00:58:03.171Z,984.16
2023-01-11T00:59:03.184Z,984.13
2023-01-11T01:00:03.146Z,984.11
2023-01-11T01:01:03.218Z,984.11
2023-01-11T01:02:03.130Z,984.10
2023-01-11T01:03:03.141Z,984.12
2023-01-11T01:04:03.115Z,984.10
2023-01-11T01:05:03.118Z,984.08
2023-01-11T01:06:03.115Z,984.10
2023-01-11T01:07:03.083Z,984.11
2023-01-11T01:08:03.052Z,984.09
2023-01-11T01:09:03.066Z,984.10
2023-01-11T01:10:03.037Z,984.09
2023-01-11T01:11:03.088Z,984.08
2023-01-11T01:12:03.018Z,984.07
2023-01-11T01:13:03.064Z,984.09
2023-01-11T01:14:02.992Z,984.07
2023-01-11T01:15:03.021Z,984.06
2023-01-11T01:16:03.030Z,984.05
2023-01-11T01:17:02.990Z,984.06
2023-01-11T01:18:02.957Z,984.06
2023-01-11T01:19:02.967Z,984.06
2023-01-11T01:20:02.927Z,984.08
2023-01-11T01:21:02.957Z,984.08
2023-01-11T01:22:02.908Z,984.09
2023-01-11T01:23:02.918Z,984.11
2023-01-11T01:24:02.889Z,984.10
2023-01-11T01:25:02.906Z,984.08
2023-01-11T01:26:02.867Z,984.05
2023-01-11T01:27:02.889Z,984.04
2023-01-11T01:28:02.855Z,984.01
2023-01-11T01:29:02.873Z,984.00
2023-01-11T01:30:02.827Z,983.99
2023-01-11T01:31:02.918Z,983.98
2023-01-11T01:32:02.820Z,983.97
2023-01-11T01:33:02.812Z,983.95
2023-01-11T01:34:02.782Z,983.93
2023-01-11T01:35:02.805Z,983.92
2023-01-11T01:36:02.768Z,983.91
2023-01-11T01:37:02.791Z,983.88
2023-01-11T01:38:02.743Z,983.86
2023-01-11T01:39:02.750Z,983.85
2023-01-11T01:40:02.720Z,983.86
2023-01-11T01:41:02.730Z,983.88
2023-01-11T01:42:02.715Z,983.87
2023-01-11T01:43:02.700Z,983.87
2023-01-11T01:44:02.680Z,983.86
2023-01-11T01:45:02.680Z,983.83
2023-01-11T01:46:02.689Z,983.82
2023-01-11T01:47:02.669Z,983.82
2023-01-11T01:48:02.653Z,983.81
2023-01-11T01:49:02.654Z,983.80
2023-01-11T01:50:02.626Z,983.80
2023-01-11T01:51:02.641Z,983.76
2023-01-11T01:52:02.595Z,983.75
2023-01-11T01:53:02.650Z,983.74
2023-01-11T01:54:02.568Z,983.72
2023-01-11T01:55:02.599Z,983.73
2023-01-11T01:56:02.571Z,983.72
2023-01-11T01:57:02.592Z,983.73
2023-01-11T01:58:02.525Z,983.70
2023-01-11T01:59:02.543Z,983.68
2023-01-11T02:00:02.541Z,983.66
2023-01-11T02:01:02.521Z,983.66
2023-01-11T02:02:02.590Z,983.62
2023-01-11T02:03:02.592Z,983.62
2023-01-11T02:04:02.468Z,983.61
2023-01-11T02:05:02.475Z,983.60
2023-01-11T02:06:02.457Z,983.58
2023-01-11T02:07:02.468Z,983.59
2023-01-11T02:08:02.424Z,983.59
2023-01-11T02:09:02.441Z,983.59
2023-01-11T02:10:02.407Z,983.59
2023-01-11T02:11:02.417Z,983.59
2023-01-11T02:12:02.384Z,983.58
2023-01-11T02:13:02.399Z,983.57
2023-01-11T02:14:02.394Z,983.56
2023-01-11T02:15:02.370Z,983.54
2023-01-11T02:16:02.410Z,983.51
2023-01-11T02:17:02.347Z,983.50
2023-01-11T02:18:02.331Z,983.51
2023-01-11T02:19:02.346Z,983.51
2023-01-11T02:20:02.321Z,983.51
2023-01-11T02:21:02.328Z,983.49
2023-01-11T02:22:02.285Z,983.48
2023-01-11T02:23:02.278Z,983.47
2023-01-11T02:24:02.284Z,983.44
2023-01-11T02:25:02.268Z,983.41
2023-01-11T02:26:02.248Z,983.39
2023-01-11T02:27:02.256Z,983.38
2023-01-11T02:28:02.217Z,983.39
2023-01-11T02:29:02.237Z,983.37
2023-01-11T02:30:02.210Z,983.37
2023-01-11T02:31:02.285Z,983.36
2023-01-11T02:32:02.188Z,983.34
2023-01-11T02:33:02.187Z,983.31
2023-01-11T02:34:02.173Z,983.31
2023-01-11T02:35:02.154Z,983.29
2023-01-11T02:36:02.130Z,983.28
2023-01-11T02:37:02.134Z,983.26
2023-01-11T02:38:02.110Z,983.24
2023-01-11T02:39:02.134Z,983.24
2023-01-11T02:40:02.095Z,983.25
2023-01-11T02:41:02.093Z,983.25
2023-01-11T02:42:02.075Z,983.27
2023-01-11T02:43:02.062Z,983.25
2023-01-11T02:44:02.065Z,983.21
2023-01-11T02:45:02.051Z,983.17
2023-01-11T02:46:02.053Z,983.15
2023-01-11T02:47:02.021Z,983.16
2023-01-11T02:48:02.019Z,983.14
2023-01-11T02:49:01.994Z,983.13
2023-01-11T02:50:02.001Z,983.15
2023-01-11T02:51:01.993Z,983.17
2023-01-11T02:52:01.993Z,983.17
2023-01-11T02:53:01.952Z,983.16
2023-01-11T02:54:01.982Z,983.16
2023-01-11T02:55:01.926Z,983.08
2023-01-11T02:56:01.958Z,983.05
2023-01-11T02:57:01.907Z,983.06
2023-01-11T02:58:01.938Z,983.08
2023-01-11T02:59:01.898Z,983.08
2023-01-11T03:00:01.889Z,983.08
2023-01-11T03:01:01.872Z,983.08
2023-01-11T03:02:01.897Z,983.09
2023-01-11T03:03:01.928Z,983.07
2023-01-11T03:04:01.879Z,983.08
2023-01-11T03:05:01.825Z,983.09
2023-01-11T03:06:01.831Z,983.11
2023-01-11T03:07:01.842Z,983.13
2023-01-11T03:08:01.834Z,983.14
2023-01-11T03:09:01.781Z,983.13
2023-01-11T03:10:01.814Z,983.10
2023-01-11T03:11:01.764Z,983.08
2023-01-11T03:12:01.780Z,983.08
2023-01-11T03:13:01.748Z,983.06
2023-01-11T03:14:01.766Z,983.04
2023-01-11T03:15:01.721Z,983.03
2023-01-11T03:16:01.793Z,982.99
2023-01-11T03:17:01.723Z,982.96
2023-01-11T03:18:01.724Z,982.93
2023-01-11T03:19:01.689Z,982.91
2023-01-11T03:20:01.731Z,982.88
2023-01-11T03:21:01.699Z,982.87
2023-01-11T03:22:01.696Z,982.85
2023-01-11T03:23:01.640Z,982.85
2023-01-11T03:24:01.651Z,982.87
2023-01-11T03:25:01.613Z,982.89
2023-01-11T03:26:01.642Z,982.93
2023-01-11T03:27:01.599Z,982.93
2023-01-11T03:28:01.598Z,982.90
2023-01-11T03:29:01.577Z,982.92
2023-01-11T03:30:01.596Z,982.88
2023-01-11T03:31:01.602Z,982.87
2023-01-11T03:32:01.575Z,982.86
2023-01-11T03:33:01.541Z,982.84
2023-01-11T03:34:01.542Z,982.83
2023-01-11T03:35:01.510Z,982.83
2023-01-11T03:36:01.538Z,982.79
2023-01-11T03:37:01.502Z,982.76
2023-01-11T03:38:01.491Z,982.77
2023-01-11T03:39:01.484Z,982.74
2023-01-11T03:40:01.483Z,982.71
2023-01-11T03:41:01.453Z,982.69
2023-01-11T03:42:01.469Z,982.66
2023-01-11T03:43:01.443Z,982.62
2023-01-11T03:44:01.449Z,982.57
2023-01-11T03:45:01.401Z,982.53
2023-01-11T03:46:01.420Z,982.52
2023-01-11T03:47:01.422Z,982.50
2023-01-11T03:48:01.384Z,982.48
2023-01-11T03:49:01.376Z,982.47
2023-01-11T03:50:01.435Z,982.47
2023-01-11T03:51:01.337Z,982.46
2023-01-11T03:52:01.373Z,982.45
2023-01-11T03:53:01.335Z,982.45
2023-01-11T03:54:01.343Z,982.46
2023-01-11T03:55:01.302Z,982.46
2023-01-11T03:56:01.316Z,982.46
2023-01-11T03:57:01.274Z,982.45
2023-01-11T03:58:01.297Z,982.45
2023-01-11T03:59:01.255Z,982.45
2023-01-11T04:00:01.269Z,982.45
2023-01-11T04:01:01.256Z,982.43
2023-01-11T04:02:01.238Z,982.43
2023-01-11T04:03:01.236Z,982.43
2023-01-11T04:04:01.247Z,982.41
2023-01-11T04:05:01.193Z,982.39
2023-01-11T04:06:01.198Z,982.38
2023-01-11T04:07:01.227Z,982.38
2023-01-11T04:08:01.193Z,982.37
2023-01-11T04:09:01.152Z,982.37
2023-01-11T04:10:01.154Z,982.37
2023-01-11T04:11:01.128Z,982.36
2023-01-11T04:12:01.145Z,982.35
2023-01-11T04:13:01.118Z,982.37
2023-01-11T04:14:01.134Z,982.34
2023-01-11T04:15:01.097Z,982.32
2023-01-11T04:16:01.178Z,982.33
2023-01-11T04:17:01.070Z,982.33
2023-01-11T04:18:01.069Z,982.34
2023-01-11T04:19:01.039Z,982.35
2023-01-11T04:20:01.062Z,982.34
2023-01-11T04:21:01.022Z,982.32
2023-01-11T04:22:01.032Z,982.33
2023-01-11T04:23:01.003Z,982.34
2023-01-11T04:24:01.021Z,982.36
2023-01-11T04:25:00.982Z,982.35
2023-01-11T04:26:00.997Z,982.33
2023-01-11T04:27:00.972Z,982.33
2023-01-11T04:28:00.990Z,982.34
2023-01-11T04:29:00.937Z,982.35
2023-01-11T04:30:00.959Z,982.33
2023-01-11T04:31:00.913Z,982.34
2023-01-11T04:32:00.947Z,982.32
2023-01-11T04:33:00.900Z,982.33
2023-01-11T04:34:00.921Z,982.30
2023-01-11T04:35:00.875Z,982.29
2023-01-11T04:36:00.893Z,982.30
2023-01-11T04:37:00.856Z,982.26
2023-01-11T04:38:00.855Z,982.24
2023-01-11T04:39:00.840Z,982.25
2023-01-11T04:40:00.864Z,982.26
2023-01-11T04:41:00.814Z,982.28
2023-01-11T04:42:00.835Z,982.29
2023-01-11T04:43:00.788Z,982.30
2023-01-11T04:44:00.808Z,982.33
2023-01-11T04:45:00.772Z,982.33
2023-01-11T04:46:00.838Z,982.30
2023-01-11T04:47:00.745Z,982.31
2023-01-11T04:48:00.749Z,982.29
2023-01-11T04:49:00.726Z,982.26
2023-01-11T04:50:00.729Z,982.28
2023-01-11T04:51:00.714Z,982.24
2023-01-11T04:52:00.719Z,982.25
2023-01-11T04:53:00.725Z,982.24
2023-01-11T04:54:00.698Z,982.24
2023-01-11T04:55:00.667Z,982.27
2023-01-11T04:56:00.680Z,982.28
2023-01-11T04:57:00.640Z,982.28
2023-01-11T04:58:00.656Z,982.25
2023-01-11T04:59:00.625Z,982.22
2023-01-11T05:00:00.631Z,982.22
2023-01-11T05:01:00.639Z,982.22
2023-01-11T05:02:00.627Z,982.21
2023-01-11T05:03:00.576Z,982.18
2023-01-11T05:04:00.644Z,982.15
2023-01-11T05:05:00.554Z,982.13
2023-01-11T05:06:00.602Z,982.12
2023-01-11T05:07:00.607Z,982.15
2023-01-11T05:08:00.539Z,982.13
2023-01-11T05:09:00.512Z,982.15
2023-01-11T05:10:00.531Z,982.15
2023-01-11T05:11:00.503Z,982.15
2023-01-11T05:12:00.519Z,982.13
2023-01-11T05:13:00.471Z,982.14
2023-01-11T05:14:00.479Z,982.11
2023-01-11T05:15:00.473Z,982.12
2023-01-11T05:16:00.482Z,982.13
2023-01-11T05:17:00.445Z,982.15
2023-01-11T05:18:00.458Z,982.17
2023-01-11T05:19:00.410Z,982.16
2023-01-11T05:20:00.429Z,982.15
2023-01-11T05:21:00.386Z,982.15
2023-01-11T05:22:00.404Z,982.16
2023-01-11T05:23:00.366Z,982.13
2023-01-11T05:24:00.393Z,982.13
2023-01-11T05:25:00.356Z,982.14
2023-01-11T05:26:00.347Z,982.12
2023-01-11T05:27:00.321Z,982.10
2023-01-11T05:28:00.325Z,982.06
2023-01-11T05:29:00.301Z,982.04
2023-01-11T05:30:00.313Z,982.01
2023-01-11T05:31:00.288Z,981.99
2023-01-11T05:32:00.363Z,981.98
2023-01-11T05:33:00.259Z,981.97
2023-01-11T05:34:00.269Z,981.95
2023-01-11T05:35:00.257Z,981.94
2023-01-11T05:36:00.259Z,981.93
2023-01-11T05:37:00.215Z,981.93
2023-01-11T05:38:00.244Z,981.90
2023-01-11T05:39:00.193Z,981.88
2023-01-11T05:40:00.198Z,981.85
2023-01-11T05:41:00.171Z,981.83
2023-01-11T05:42:00.196Z,981.81
2023-01-11T05:43:00.156Z,981.78
2023-01-11T05:44:00.166Z,981.78
2023-01-11T05:45:00.183Z,981.77
2023-01-11T05:46:00.242Z,981.76
2023-01-11T05:47:00.116Z,981.77
2023-01-11T05:48:00.137Z,981.81
2023-01-11T05:49:00.126Z,981.82
2023-01-11T05:50:00.108Z,981.82
2023-01-11T05:51:01.526Z,981.83
2023-01-11T05:52:00.087Z,981.81
2023-01-11T05:53:00.047Z,981.80
2023-01-11T05:54:00.070Z,981.78
2023-01-11T05:55:00.033Z,981.75
2023-01-11T05:56:00.029Z,981.73
2023-01-11T05:56:59.997Z,981.72
2023-01-11T05:58:00.039Z,981.71
2023-01-11T05:58:59.988Z,981.68
2023-01-11T05:59:59.982Z,981.69
2023-01-11T06:00:59.960Z,981.68
2023-01-11T06:02:00.045Z,981.70
2023-01-11T06:03:00.098Z,981.71
2023-01-11T06:03:59.941Z,981.73
2023-01-11T06:04:59.920Z,981.76
2023-01-11T06:05:59.941Z,981.76
2023-01-11T06:06:59.987Z,981.75
2023-01-11T06:07:59.921Z,981.75
2023-01-11T06:08:59.873Z,981.75
2023-01-11T06:09:59.900Z,981.73
2023-01-11T06:11:00.263Z,981.71
2023-01-11T06:11:59.868Z,981.73
2023-01-11T06:12:59.829Z,981.72
2023-01-11T06:13:59.851Z,981.70
2023-01-11T06:14:59.816Z,981.68
2023-01-11T06:15:59.828Z,981.68
2023-01-11T06:16:59.834Z,981.70
2023-01-11T06:17:59.793Z,981.68
2023-01-11T06:18:59.768Z,981.67
2023-01-11T06:19:59.770Z,981.66
2023-01-11T06:20:59.749Z,981.64
2023-01-11T06:21:59.775Z,981.64
2023-01-11T06:22:59.724Z,981.65
2023-01-11T06:23:59.728Z,981.64
2023-01-11T06:24:59.720Z,981.65
2023-01-11T06:25:59.721Z,981.67
2023-01-11T06:26:59.692Z,981.68
2023-01-11T06:27:59.696Z,981.67
2023-01-11T06:28:59.656Z,981.68
2023-01-11T06:29:59.667Z,981.70
2023-01-11T06:30:59.707Z,981.69
2023-01-11T06:31:59.645Z,981.70
2023-01-11T06:32:59.623Z,981.71
2023-01-11T06:33:59.622Z,981.73
2023-01-11T06:34:59.598Z,981.75
2023-01-11T06:35:59.613Z,981.75
2023-01-11T06:36:59.592Z,981.75
2023-01-11T06:37:59.589Z,981.73
2023-01-11T06:38:59.556Z,981.72
2023-01-11T06:39:59.570Z,981.70
2023-01-11T06:40:59.527Z,981.68
2023-01-11T06:41:59.670Z,981.64
2023-01-11T06:42:59.526Z,981.63
2023-01-11T06:43:59.511Z,981.59
2023-01-11T06:44:59.443Z,981.55
2023-01-11T06:45:59.482Z,981.52
2023-01-11T06:46:59.412Z,981.52
2023-01-11T06:47:59.531Z,981.53
2023-01-11T06:48:59.457Z,981.54
2023-01-11T06:49:59.471Z,981.53
2023-01-11T06:50:59.427Z,981.52
2023-01-11T06:51:59.441Z,981.53
2023-01-11T06:52:59.427Z,981.51
2023-01-11T06:53:59.385Z,981.48
2023-01-11T06:54:59.324Z,981.45
2023-01-11T06:55:59.347Z,981.42
2023-01-11T06:56:59.369Z,981.41
2023-01-11T06:57:59.381Z,981.41
2023-01-11T06:58:59.343Z,981.42
2023-01-11T06:59:59.265Z,981.41
2023-01-11T07:00:59.339Z,981.41
2023-01-11T07:01:59.248Z,981.41
2023-01-11T07:02:59.262Z,981.42
2023-01-11T07:03:59.226Z,981.44
2023-01-11T07:04:59.336Z,981.44
2023-01-11T07:05:59.209Z,981.44
2023-01-11T07:06:59.237Z,981.45
2023-01-11T07:07:59.187Z,981.45
2023-01-11T07:08:59.201Z,981.44
2023-01-11T07:09:59.165Z,981.44
2023-01-11T07:10:59.253Z,981.41
2023-01-11T07:11:59.146Z,981.41
2023-01-11T07:12:59.161Z,981.40
2023-01-11T07:13:59.141Z,981.41
2023-01-11T07:14:59.127Z,981.42
2023-01-11T07:15:59.151Z,981.44
2023-01-11T07:16:59.118Z,981.45
2023-01-11T07:17:59.084Z,981.45
2023-01-11T07:18:59.085Z,981.46
2023-01-11T07:19:59.064Z,981.47
2023-01-11T07:20:59.068Z,981.50
2023-01-11T07:21:59.045Z,981.48
2023-01-11T07:22:59.047Z,981.47
2023-01-11T07:23:59.031Z,981.47
2023-01-11T07:24:59.024Z,981.48
2023-01-11T07:25:59.038Z,981.47
2023-01-11T07:26:59.010Z,981.48
2023-01-11T07:27:58.980Z,981.48
2023-01-11T07:28:58.977Z,981.48
2023-01-11T07:29:58.967Z,981.49
2023-01-11T07:30:59.990Z,981.46
2023-01-11T07:31:58.937Z,981.47
2023-01-11T07:32:58.948Z,981.45
2023-01-11T07:33:58.908Z,981.46
2023-01-11T07:34:58.923Z,981.46
2023-01-11T07:35:58.893Z,981.46
2023-01-11T07:36:58.903Z,981.47
2023-01-11T07:37:58.862Z,981.47
2023-01-11T07:38:58.896Z,981.45
2023-01-11T07:39:58.848Z,981.44
2023-01-11T07:40:58.857Z,981.42
2023-01-11T07:41:58.821Z,981.40
2023-01-11T07:42:58.849Z,981.37
2023-01-11T07:43:58.804Z,981.38
2023-01-11T07:44:58.806Z,981.38
2023-01-11T07:45:58.938Z,981.40
2023-01-11T07:46:58.834Z,981.40
2023-01-11T07:47:58.762Z,981.39
2023-01-11T07:48:58.776Z,981.38
2023-01-11T07:49:58.736Z,981.34
2023-01-11T07:50:58.739Z,981.34
2023-01-11T07:51:58.719Z,981.31
2023-01-11T07:52:58.744Z,981.29
2023-01-11T07:53:58.691Z,981.27
2023-01-11T07:54:58.717Z,981.31
2023-01-11T07:55:58.688Z,981.31
2023-01-11T07:56:58.698Z,981.31
2023-01-11T07:57:58.649Z,981.30
2023-01-11T07:58:58.700Z,981.29
2023-01-11T07:59:58.637Z,981.30
2023-01-11T08:00:58.631Z,981.28
2023-01-11T08:01:58.621Z,981.28
2023-01-11T08:02:58.736Z,981.27
2023-01-11T08:03:58.588Z,981.24
2023-01-11T08:04:58.612Z,981.25
2023-01-11T08:05:58.566Z,981.26
2023-01-11T08:06:58.581Z,981.27
2023-01-11T08:07:58.557Z,981.28
2023-01-11T08:08:58.573Z,981.27
2023-01-11T08:09:58.522Z,981.26
2023-01-11T08:10:58.568Z,981.26
2023-01-11T08:11:58.505Z,981.25
2023-01-11T08:12:58.543Z,981.26
2023-01-11T08:13:58.490Z,981.26
2023-01-11T08:14:58.494Z,981.26
2023-01-11T08:15:58.548Z,981.26
2023-01-11T08:16:58.477Z,981.27
2023-01-11T08:17:58.456Z,981.28
2023-01-11T08:18:58.460Z,981.27
2023-01-11T08:19:58.488Z,981.28
2023-01-11T08:20:58.420Z,981.24
2023-01-11T08:21:58.394Z,981.22
2023-01-11T08:22:58.424Z,981.20
2023-01-11T08:23:58.375Z,981.19
2023-01-11T08:24:58.384Z,981.19
2023-01-11T08:25:58.350Z,981.17
2023-01-11T08:26:58.383Z,981.16
2023-01-11T08:27:58.339Z,981.16
2023-01-11T08:28:58.330Z,981.13
2023-01-11T08:29:58.305Z,981.10
2023-01-11T08:30:58.406Z,981.09
2023-01-11T08:31:58.307Z,981.09
2023-01-11T08:32:58.287Z,981.10
2023-01-11T08:33:58.284Z,981.09
2023-01-11T08:34:58.264Z,981.09
2023-01-11T08:35:58.245Z,981.11
2023-01-11T08:36:58.256Z,981.11
2023-01-11T08:37:58.225Z,981.10
2023-01-11T08:38:58.258Z,981.13
2023-01-11T08:39:58.214Z,981.12
2023-01-11T08:40:58.224Z,981.12
2023-01-11T08:41:58.182Z,981.11
2023-01-11T08:42:58.190Z,981.15
2023-01-11T08:43:58.171Z,981.14
2023-01-11T08:44:58.173Z,981.16
2023-01-11T08:45:58.139Z,981.16
2023-01-11T08:46:58.154Z,981.16
2023-01-11T08:47:58.128Z,981.16
2023-01-11T08:48:58.149Z,981.16
2023-01-11T08:49:58.122Z,981.13
2023-01-11T08:50:58.101Z,981.13
2023-01-11T08:51:58.084Z,981.12
2023-01-11T08:52:58.094Z,981.13
2023-01-11T08:53:58.057Z,981.13
2023-01-11T08:54:58.063Z,981.11
2023-01-11T08:55:58.039Z,981.14
2023-01-11T08:56:58.036Z,981.18
2023-01-11T08:57:58.005Z,981.17
2023-01-11T08:58:58.024Z,981.19
2023-01-11T08:59:57.982Z,981.20
2023-01-11T09:00:57.997Z,981.21
2023-01-11T09:01:58.004Z,981.23
2023-01-11T09:02:58.034Z,981.24
2023-01-11T09:03:57.939Z,981.21
2023-01-11T09:04:57.947Z,981.23
2023-01-11T09:05:57.936Z,981.19
2023-01-11T09:06:57.926Z,981.20
2023-01-11T09:07:57.898Z,981.18
2023-01-11T09:08:57.916Z,981.19
2023-01-11T09:09:57.880Z,981.19
2023-01-11T09:10:57.908Z,981.18
2023-01-11T09:11:57.877Z,981.18
2023-01-11T09:12:57.861Z,981.18
2023-01-11T09:13:57.843Z,981.21
2023-01-11T09:14:57.845Z,981.19
2023-01-11T09:15:57.901Z,981.18
2023-01-11T09:16:57.836Z,981.17
2023-01-11T09:17:57.795Z,981.15
2023-01-11T09:18:57.798Z,981.14
2023-01-11T09:19:57.769Z,981.12
2023-01-11T09:20:57.789Z,981.11
2023-01-11T09:21:57.756Z,981.11
2023-01-11T09:22:57.765Z,981.12
2023-01-11T09:23:57.735Z,981.11
2023-01-11T09:24:57.745Z,981.13
2023-01-11T09:25:57.713Z,981.13
2023-01-11T09:26:57.744Z,981.12
2023-01-11T09:27:57.726Z,981.11
2023-01-11T09:28:57.751Z,981.10
2023-01-11T09:29:57.662Z,981.08
2023-01-11T09:30:57.720Z,981.06
2023-01-11T09:31:57.664Z,981.05
2023-01-11T09:32:57.682Z,981.05
2023-01-11T09:33:57.620Z,981.04
2023-01-11T09:34:57.635Z,981.00
2023-01-11T09:35:57.599Z,980.98
2023-01-11T09:36:57.632Z,980.98
2023-01-11T09:37:57.604Z,980.97
2023-01-11T09:38:57.653Z,980.96
2023-01-11T09:39:57.559Z,980.93
2023-01-11T09:40:57.575Z,980.91
2023-01-11T09:41:57.529Z,980.92
2023-01-11T09:42:57.555Z,980.90
2023-01-11T09:43:57.525Z,980.91
2023-01-11T09:44:57.541Z,980.91
2023-01-11T09:45:57.487Z,980.90
2023-01-11T09:46:57.540Z,980.88
2023-01-11T09:47:57.466Z,980.86
2023-01-11T09:48:57.475Z,980.85
2023-01-11T09:49:57.459Z,980.84
2023-01-11T09:50:57.463Z,980.82
2023-01-11T09:51:59.793Z,980.77
2023-01-11T09:52:57.431Z,980.77
2023-01-11T09:53:57.405Z,980.77
2023-01-11T09:54:57.427Z,980.74
2023-01-11T09:55:57.402Z,980.73
2023-01-11T09:56:57.399Z,980.71
2023-01-11T09:57:57.359Z,980.74
2023-01-11T09:58:57.388Z,980.71
2023-01-11T09:59:57.349Z,980.75
2023-01-11T10:00:59.579Z,980.73
2023-01-11T10:01:57.320Z,980.73
2023-01-11T10:02:57.328Z,980.73
2023-01-11T10:03:57.308Z,980.71
2023-01-11T10:04:57.367Z,980.72
2023-01-11T10:05:57.290Z,980.73
2023-01-11T10:06:57.292Z,980.69
2023-01-11T10:18:23.604Z,980.69
2023-01-11T10:19:05.843Z,980.66
2023-01-11T10:19:37.415Z,980.65
2023-01-11T10:19:52.518Z,980.65
2023-01-11T10:20:52.476Z,980.63
2023-01-11T10:21:52.441Z,980.60
2023-01-11T10:22:52.458Z,980.56
2023-01-11T10:23:52.422Z,980.49
2023-01-11T10:24:52.461Z,980.43
2023-01-11T10:25:52.421Z,980.34
2023-01-11T10:26:52.510Z,980.34
2023-01-11T10:27:52.401Z,980.32
2023-01-11T10:28:52.389Z,980.29
2023-01-11T10:29:52.372Z,980.30
2023-01-11T10:30:52.386Z,980.31
2023-01-11T10:31:52.394Z,980.29
2023-01-11T10:32:52.344Z,980.30
2023-01-11T10:33:52.391Z,980.29
2023-01-11T10:34:52.336Z,980.26
2023-01-11T10:35:52.309Z,980.22
2023-01-11T10:36:52.309Z,980.21
2023-01-11T10:37:52.278Z,980.23
2023-01-11T10:38:52.329Z,980.27
2023-01-11T10:39:52.253Z,980.30
2023-01-11T10:40:52.323Z,980.29
2023-01-11T10:41:52.322Z,980.26
2023-01-11T10:42:52.255Z,980.26
2023-01-11T10:43:52.230Z,980.28
2023-01-11T10:44:52.227Z,980.27
2023-01-11T10:45:52.241Z,980.30
2023-01-11T10:46:52.224Z,980.30
2023-01-11T10:47:52.161Z,980.32
2023-01-11T10:48:52.200Z,980.29
2023-01-11T10:49:52.151Z,980.29
2023-01-11T10:50:52.264Z,980.29
2023-01-11T10:51:52.178Z,980.29
2023-01-11T10:52:52.177Z,980.30
2023-01-11T10:53:52.106Z,980.29
2023-01-11T10:54:52.164Z,980.29
2023-01-11T10:55:52.084Z,980.31
2023-01-11T10:57:03.539Z,980.31
2023-01-11T10:58:01.694Z,980.30
2023-01-11T10:58:52.096Z,980.30
2023-01-11T10:59:52.031Z,980.31
2023-01-11T11:00:52.186Z,980.30
2023-01-11T11:01:52.029Z,980.28
2023-01-11T11:02:52.019Z,980.27
2023-01-11T11:03:52.001Z,980.26
2023-01-11T11:04:51.995Z,980.24
2023-01-11T11:05:51.984Z,980.24
2023-01-11T11:06:51.976Z,980.17
2023-01-11T11:07:51.965Z,980.19
2023-01-11T11:08:51.959Z,980.19
2023-01-11T11:09:51.925Z,980.22
2023-01-11T11:10:51.972Z,980.20
2023-01-11T11:11:51.899Z,980.16
2023-01-11T11:12:51.932Z,980.18
2023-01-11T11:13:51.886Z,980.16
2023-01-11T11:14:51.883Z,980.18
2023-01-11T11:15:53.108Z,980.14
2023-01-11T11:16:51.868Z,980.16
2023-01-11T11:17:51.840Z,980.14
2023-01-11T11:18:51.870Z,980.13
2023-01-11T11:19:51.816Z,980.19
2023-01-11T11:20:51.944Z,980.18
2023-01-11T11:21:51.953Z,980.15
2023-01-11T11:22:51.821Z,980.13
2023-01-11T11:23:51.790Z,980.11
2023-01-11T11:24:51.774Z,980.13
2023-01-11T11:25:51.785Z,980.11
2023-01-11T11:26:51.771Z,980.09
2023-01-11T11:27:51.772Z,980.10
2023-01-11T11:28:51.718Z,980.09
2023-01-11T11:29:51.739Z,980.06
2023-01-11T11:30:51.708Z,980.06
2023-01-11T11:31:51.752Z,980.02
2023-01-11T11:32:51.679Z,980.04
2023-01-11T11:33:51.692Z,980.02
2023-01-11T11:34:51.676Z,980.04
2023-01-11T11:35:51.677Z,980.02
2023-01-11T11:36:51.645Z,979.95
2023-01-11T11:37:51.668Z,979.96
2023-01-11T11:38:51.616Z,979.96
2023-01-11T11:39:51.616Z,979.93
2023-01-11T11:40:51.603Z,979.93
2023-01-11T11:41:51.614Z,979.92
2023-01-11T11:42:51.573Z,979.92
2023-01-11T11:43:51.610Z,979.90
2023-01-11T11:44:51.555Z,979.86
2023-01-11T11:45:51.661Z,979.85
2023-01-11T11:46:51.521Z,979.84
2023-01-11T11:47:51.546Z,979.84
2023-01-11T11:48:51.500Z,979.84
2023-01-11T11:49:51.523Z,979.85
2023-01-11T11:50:51.479Z,979.84
2023-01-11T11:51:51.545Z,979.82
2023-01-11T11:52:51.459Z,979.81
2023-01-11T11:53:51.483Z,979.80
2023-01-11T11:54:51.442Z,979.79
2023-01-11T11:55:51.502Z,979.77
2023-01-11T11:56:51.423Z,979.77
2023-01-11T11:57:51.439Z,979.76
2023-01-11T11:58:51.401Z,979.74
2023-01-11T11:59:51.414Z,979.74
2023-01-11T12:00:51.402Z,979.73
2023-01-11T12:01:51.464Z,979.72
2023-01-11T12:02:51.356Z,979.72
2023-01-11T12:03:51.371Z,979.70
2023-01-11T12:04:51.388Z,979.70
2023-01-11T12:05:51.351Z,979.70
2023-01-11T12:06:51.312Z,979.70
2023-01-11T12:07:55.051Z,979.71
2023-01-11T12:08:51.298Z,979.68
2023-01-11T12:09:51.315Z,979.67
2023-01-11T12:10:51.301Z,979.65
2023-01-11T12:11:51.272Z,979.65
2023-01-11T12:12:51.263Z,979.65
2023-01-11T12:13:51.244Z,979.64
2023-01-11T12:14:51.222Z,979.65
2023-01-11T12:15:51.238Z,979.63
2023-01-11T12:16:51.281Z,979.66
2023-01-11T12:17:51.216Z,979.67
2023-01-11T12:18:51.177Z,979.65
2023-01-11T12:19:51.183Z,979.65
2023-01-11T12:20:51.167Z,979.63
2023-01-11T12:21:51.200Z,979.62
2023-01-11T12:22:51.158Z,979.65
2023-01-11T12:23:51.138Z,979.58
2023-01-11T12:24:51.116Z,979.56
2023-01-11T12:25:51.142Z,979.55
2023-01-11T12:26:51.157Z,979.55
2023-01-11T12:27:51.110Z,979.54
2023-01-11T12:28:51.081Z,979.52
2023-01-11T12:29:51.122Z,979.52
2023-01-11T12:30:51.109Z,979.51
2023-01-11T12:31:51.059Z,979.51
2023-01-11T12:32:51.050Z,979.49
2023-01-11T12:33:51.065Z,979.49
2023-01-11T12:34:51.005Z,979.50
2023-01-11T12:35:51.055Z,979.50
2023-01-11T12:36:50.998Z,979.50